sensor_id;sensor_type;location;lat;lon;timestamp;P1;durP1;ratioP1;P2;durP2;ratioP2
22378;SDS011;11357;49.990;7.370;2023-06-14T00:00:19;10.25;;;4.30;;
22378;SDS011;11357;49.990;7.370;2023-06-14T00:02:45;9.23;;;5.23;;
22378;SDS011;11357;49.990;7.370;2023-06-14T00:05:11;9.35;;;4.93;;
22378;SDS011;11357;49.990;7.370;2023-06-14T00:07:38;8.73;;;5.00;;
22378;SDS011;11357;49.990;7.370;2023-06-14T00:10:08;6.47;;;4.50;;
22378;SDS011;11357;49.990;7.370;2023-06-14T00:12:37;13.82;;;4.90;;
22378;SDS011;11357;49.990;7.370;2023-06-14T00:15:04;6.65;;;4.57;;
22378;SDS011;11357;49.990;7.370;2023-06-14T00:17:30;5.75;;;4.32;;
22378;SDS011;11357;49.990;7.370;2023-06-14T00:19:59;6.27;;;4.30;;
22378;SDS011;11357;49.990;7.370;2023-06-14T00:22:25;8.18;;;4.20;;
22378;SDS011;11357;49.990;7.370;2023-06-14T00:24:53;7.10;;;4.50;;
22378;SDS011;11357;49.990;7.370;2023-06-14T00:27:19;6.27;;;4.33;;
22378;SDS011;11357;49.990;7.370;2023-06-14T00:29:44;9.18;;;4.45;;
22378;SDS011;11357;49.990;7.370;2023-06-14T00:32:10;8.15;;;4.80;;
22378;SDS011;11357;49.990;7.370;2023-06-14T00:34:36;7.80;;;4.70;;
22378;SDS011;11357;49.990;7.370;2023-06-14T00:37:02;6.97;;;4.33;;
22378;SDS011;11357;49.990;7.370;2023-06-14T00:39:27;5.30;;;4.10;;
22378;SDS011;11357;49.990;7.370;2023-06-14T00:41:53;7.13;;;4.40;;
22378;SDS011;11357;49.990;7.370;2023-06-14T00:44:19;6.80;;;3.97;;
22378;SDS011;11357;49.990;7.370;2023-06-14T00:46:45;7.67;;;4.63;;
22378;SDS011;11357;49.990;7.370;2023-06-14T00:49:12;4.85;;;4.32;;
22378;SDS011;11357;49.990;7.370;2023-06-14T00:51:44;6.27;;;4.10;;
22378;SDS011;11357;49.990;7.370;2023-06-14T00:54:10;7.32;;;4.07;;
22378;SDS011;11357;49.990;7.370;2023-06-14T00:56:36;9.50;;;4.50;;
22378;SDS011;11357;49.990;7.370;2023-06-14T00:59:02;8.53;;;4.67;;
22378;SDS011;11357;49.990;7.370;2023-06-14T01:01:28;6.65;;;4.70;;
22378;SDS011;11357;49.990;7.370;2023-06-14T01:03:58;6.93;;;4.40;;
22378;SDS011;11357;49.990;7.370;2023-06-14T01:09:31;5.03;;;4.00;;
22378;SDS011;11357;49.990;7.370;2023-06-14T01:12:21;7.57;;;4.63;;
22378;SDS011;11357;49.990;7.370;2023-06-14T01:14:52;5.90;;;4.33;;
22378;SDS011;11357;49.990;7.370;2023-06-14T01:17:20;15.88;;;4.25;;
22378;SDS011;11357;49.990;7.370;2023-06-14T01:19:48;5.47;;;4.10;;
22378;SDS011;11357;49.990;7.370;2023-06-14T01:22:14;7.37;;;4.40;;
22378;SDS011;11357;49.990;7.370;2023-06-14T01:24:39;8.77;;;4.50;;
22378;SDS011;11357;49.990;7.370;2023-06-14T01:27:09;7.73;;;4.63;;
22378;SDS011;11357;49.990;7.370;2023-06-14T01:29:36;5.30;;;4.27;;
22378;SDS011;11357;49.990;7.370;2023-06-14T01:32:02;7.95;;;4.68;;
22378;SDS011;11357;49.990;7.370;2023-06-14T01:34:29;7.75;;;4.18;;
22378;SDS011;11357;49.990;7.370;2023-06-14T01:36:55;5.72;;;4.45;;
22378;SDS011;11357;49.990;7.370;2023-06-14T01:39:21;5.77;;;4.93;;
22378;SDS011;11357;49.990;7.370;2023-06-14T01:41:48;6.20;;;4.33;;
22378;SDS011;11357;49.990;7.370;2023-06-14T01:44:15;6.88;;;4.68;;
22378;SDS011;11357;49.990;7.370;2023-06-14T01:46:42;6.60;;;4.53;;
22378;SDS011;11357;49.990;7.370;2023-06-14T01:49:10;9.00;;;4.10;;
22378;SDS011;11357;49.990;7.370;2023-06-14T01:51:36;10.23;;;4.30;;
22378;SDS011;11357;49.990;7.370;2023-06-14T01:54:02;8.15;;;4.20;;
22378;SDS011;11357;49.990;7.370;2023-06-14T01:56:28;6.23;;;4.60;;
22378;SDS011;11357;49.990;7.370;2023-06-14T01:58:54;5.43;;;4.20;;
22378;SDS011;11357;49.990;7.370;2023-06-14T02:01:20;9.97;;;5.30;;
22378;SDS011;11357;49.990;7.370;2023-06-14T02:03:46;6.20;;;4.40;;
22378;SDS011;11357;49.990;7.370;2023-06-14T02:06:13;6.07;;;4.50;;
22378;SDS011;11357;49.990;7.370;2023-06-14T02:08:40;6.82;;;4.85;;
22378;SDS011;11357;49.990;7.370;2023-06-14T02:11:06;7.93;;;4.90;;
22378;SDS011;11357;49.990;7.370;2023-06-14T02:13:32;7.90;;;4.47;;
22378;SDS011;11357;49.990;7.370;2023-06-14T02:15:59;6.87;;;4.57;;
22378;SDS011;11357;49.990;7.370;2023-06-14T02:18:25;8.17;;;4.90;;
22378;SDS011;11357;49.990;7.370;2023-06-14T02:20:51;7.47;;;4.53;;
22378;SDS011;11357;49.990;7.370;2023-06-14T02:23:16;6.17;;;4.97;;
22378;SDS011;11357;49.990;7.370;2023-06-14T02:25:42;10.90;;;5.10;;
22378;SDS011;11357;49.990;7.370;2023-06-14T02:28:10;7.50;;;5.33;;
22378;SDS011;11357;49.990;7.370;2023-06-14T02:30:35;6.60;;;4.67;;
22378;SDS011;11357;49.990;7.370;2023-06-14T02:33:01;6.30;;;4.70;;
22378;SDS011;11357;49.990;7.370;2023-06-14T02:35:28;8.00;;;4.70;;
22378;SDS011;11357;49.990;7.370;2023-06-14T02:37:54;9.40;;;4.90;;
22378;SDS011;11357;49.990;7.370;2023-06-14T02:40:20;5.10;;;4.60;;
22378;SDS011;11357;49.990;7.370;2023-06-14T02:42:46;9.20;;;4.80;;
22378;SDS011;11357;49.990;7.370;2023-06-14T02:45:12;7.73;;;5.20;;
22378;SDS011;11357;49.990;7.370;2023-06-14T02:47:37;6.53;;;5.00;;
22378;SDS011;11357;49.990;7.370;2023-06-14T02:50:03;5.80;;;4.83;;
22378;SDS011;11357;49.990;7.370;2023-06-14T02:52:29;6.03;;;5.00;;
22378;SDS011;11357;49.990;7.370;2023-06-14T02:54:55;8.67;;;5.20;;
22378;SDS011;11357;49.990;7.370;2023-06-14T02:57:21;8.90;;;4.70;;
22378;SDS011;11357;49.990;7.370;2023-06-14T02:59:48;7.67;;;4.90;;
22378;SDS011;11357;49.990;7.370;2023-06-14T03:02:14;5.90;;;5.07;;
22378;SDS011;11357;49.990;7.370;2023-06-14T03:04:39;7.20;;;5.70;;
22378;SDS011;11357;49.990;7.370;2023-06-14T03:07:07;9.20;;;6.00;;
22378;SDS011;11357;49.990;7.370;2023-06-14T03:09:39;9.93;;;5.37;;
22378;SDS011;11357;49.990;7.370;2023-06-14T03:12:05;7.03;;;5.20;;
22378;SDS011;11357;49.990;7.370;2023-06-14T03:14:34;6.83;;;5.53;;
22378;SDS011;11357;49.990;7.370;2023-06-14T03:17:00;7.20;;;4.77;;
22378;SDS011;11357;49.990;7.370;2023-06-14T03:19:27;5.97;;;4.90;;
22378;SDS011;11357;49.990;7.370;2023-06-14T03:21:52;10.23;;;5.30;;
22378;SDS011;11357;49.990;7.370;2023-06-14T03:24:21;8.80;;;5.27;;
22378;SDS011;11357;49.990;7.370;2023-06-14T03:26:48;7.77;;;5.83;;
22378;SDS011;11357;49.990;7.370;2023-06-14T03:29:13;6.90;;;5.57;;
22378;SDS011;11357;49.990;7.370;2023-06-14T03:31:42;8.03;;;5.40;;
22378;SDS011;11357;49.990;7.370;2023-06-14T03:34:25;6.33;;;5.27;;
22378;SDS011;11357;49.990;7.370;2023-06-14T03:36:50;7.47;;;5.67;;
22378;SDS011;11357;49.990;7.370;2023-06-14T03:39:16;8.40;;;5.23;;
22378;SDS011;11357;49.990;7.370;2023-06-14T03:41:42;7.50;;;5.60;;
22378;SDS011;11357;49.990;7.370;2023-06-14T03:44:08;7.07;;;5.70;;
22378;SDS011;11357;49.990;7.370;2023-06-14T03:46:33;7.33;;;6.20;;
22378;SDS011;11357;49.990;7.370;2023-06-14T03:48:59;7.40;;;5.83;;
22378;SDS011;11357;49.990;7.370;2023-06-14T03:51:25;6.27;;;5.43;;
22378;SDS011;11357;49.990;7.370;2023-06-14T03:53:51;7.60;;;5.23;;
22378;SDS011;11357;49.990;7.370;2023-06-14T03:56:16;6.23;;;5.33;;
22378;SDS011;11357;49.990;7.370;2023-06-14T03:58:42;6.40;;;5.80;;
22378;SDS011;11357;49.990;7.370;2023-06-14T04:01:08;6.50;;;5.47;;
22378;SDS011;11357;49.990;7.370;2023-06-14T04:03:33;7.27;;;5.73;;
22378;SDS011;11357;49.990;7.370;2023-06-14T04:05:59;7.90;;;5.37;;
22378;SDS011;11357;49.990;7.370;2023-06-14T04:08:25;8.57;;;6.17;;
22378;SDS011;11357;49.990;7.370;2023-06-14T04:10:51;9.40;;;6.10;;
22378;SDS011;11357;49.990;7.370;2023-06-14T04:13:17;7.43;;;5.47;;
22378;SDS011;11357;49.990;7.370;2023-06-14T04:15:42;10.40;;;5.73;;
22378;SDS011;11357;49.990;7.370;2023-06-14T04:18:10;10.33;;;6.13;;
22378;SDS011;11357;49.990;7.370;2023-06-14T04:20:37;7.70;;;5.37;;
22378;SDS011;11357;49.990;7.370;2023-06-14T04:23:12;6.30;;;5.63;;
22378;SDS011;11357;49.990;7.370;2023-06-14T04:25:43;6.50;;;5.47;;
22378;SDS011;11357;49.990;7.370;2023-06-14T04:28:12;9.10;;;5.50;;
22378;SDS011;11357;49.990;7.370;2023-06-14T04:30:41;6.73;;;5.40;;
22378;SDS011;11357;49.990;7.370;2023-06-14T04:33:07;9.37;;;4.97;;
22378;SDS011;11357;49.990;7.370;2023-06-14T04:35:32;14.70;;;5.40;;
22378;SDS011;11357;49.990;7.370;2023-06-14T04:38:00;7.97;;;4.63;;
22378;SDS011;11357;49.990;7.370;2023-06-14T04:40:29;12.63;;;5.67;;
22378;SDS011;11357;49.990;7.370;2023-06-14T04:42:55;6.83;;;5.00;;
22378;SDS011;11357;49.990;7.370;2023-06-14T04:45:22;10.63;;;5.10;;
22378;SDS011;11357;49.990;7.370;2023-06-14T04:47:48;6.37;;;4.63;;
22378;SDS011;11357;49.990;7.370;2023-06-14T04:50:15;9.63;;;4.57;;
22378;SDS011;11357;49.990;7.370;2023-06-14T04:52:43;8.07;;;4.83;;
22378;SDS011;11357;49.990;7.370;2023-06-14T04:55:08;7.73;;;4.57;;
22378;SDS011;11357;49.990;7.370;2023-06-14T04:57:35;9.03;;;4.83;;
22378;SDS011;11357;49.990;7.370;2023-06-14T05:00:00;6.97;;;4.73;;
22378;SDS011;11357;49.990;7.370;2023-06-14T05:02:29;12.10;;;4.53;;
22378;SDS011;11357;49.990;7.370;2023-06-14T05:04:55;7.03;;;4.27;;
22378;SDS011;11357;49.990;7.370;2023-06-14T05:07:21;9.17;;;5.07;;
22378;SDS011;11357;49.990;7.370;2023-06-14T05:09:49;9.90;;;4.70;;
22378;SDS011;11357;49.990;7.370;2023-06-14T05:12:14;6.77;;;4.70;;
22378;SDS011;11357;49.990;7.370;2023-06-14T05:14:43;6.83;;;3.90;;
22378;SDS011;11357;49.990;7.370;2023-06-14T05:17:09;8.57;;;4.33;;
22378;SDS011;11357;49.990;7.370;2023-06-14T05:19:35;9.77;;;4.67;;
22378;SDS011;11357;49.990;7.370;2023-06-14T05:22:00;9.83;;;4.30;;
22378;SDS011;11357;49.990;7.370;2023-06-14T05:24:27;8.27;;;4.30;;
22378;SDS011;11357;49.990;7.370;2023-06-14T05:26:55;6.67;;;4.40;;
22378;SDS011;11357;49.990;7.370;2023-06-14T05:29:21;11.27;;;4.17;;
22378;SDS011;11357;49.990;7.370;2023-06-14T05:31:47;6.33;;;4.23;;
22378;SDS011;11357;49.990;7.370;2023-06-14T05:34:13;7.15;;;4.15;;
22378;SDS011;11357;49.990;7.370;2023-06-14T05:36:38;5.73;;;3.87;;
22378;SDS011;11357;49.990;7.370;2023-06-14T05:39:04;6.88;;;4.50;;
22378;SDS011;11357;49.990;7.370;2023-06-14T05:41:30;4.93;;;3.88;;
22378;SDS011;11357;49.990;7.370;2023-06-14T05:43:56;5.63;;;3.80;;
22378;SDS011;11357;49.990;7.370;2023-06-14T05:46:22;9.93;;;4.35;;
22378;SDS011;11357;49.990;7.370;2023-06-14T05:48:53;11.05;;;4.90;;
22378;SDS011;11357;49.990;7.370;2023-06-14T05:51:20;7.43;;;3.90;;
22378;SDS011;11357;49.990;7.370;2023-06-14T05:53:47;8.15;;;4.38;;
22378;SDS011;11357;49.990;7.370;2023-06-14T05:56:14;9.32;;;3.90;;
22378;SDS011;11357;49.990;7.370;2023-06-14T05:58:40;7.57;;;4.63;;
22378;SDS011;11357;49.990;7.370;2023-06-14T06:01:06;7.85;;;3.92;;
22378;SDS011;11357;49.990;7.370;2023-06-14T06:03:31;6.95;;;4.40;;
22378;SDS011;11357;49.990;7.370;2023-06-14T06:05:57;7.55;;;3.92;;
22378;SDS011;11357;49.990;7.370;2023-06-14T06:08:23;5.60;;;3.78;;
22378;SDS011;11357;49.990;7.370;2023-06-14T06:10:49;6.07;;;4.15;;
22378;SDS011;11357;49.990;7.370;2023-06-14T06:13:15;13.98;;;4.90;;
22378;SDS011;11357;49.990;7.370;2023-06-14T06:15:41;11.82;;;4.30;;
22378;SDS011;11357;49.990;7.370;2023-06-14T06:18:06;6.85;;;3.95;;
22378;SDS011;11357;49.990;7.370;2023-06-14T06:20:32;4.53;;;4.10;;
22378;SDS011;11357;49.990;7.370;2023-06-14T06:22:58;10.95;;;4.20;;
22378;SDS011;11357;49.990;7.370;2023-06-14T06:25:24;7.10;;;4.22;;
22378;SDS011;11357;49.990;7.370;2023-06-14T06:27:52;4.93;;;3.58;;
22378;SDS011;11357;49.990;7.370;2023-06-14T06:30:18;9.57;;;3.80;;
22378;SDS011;11357;49.990;7.370;2023-06-14T06:32:44;7.55;;;4.60;;
22378;SDS011;11357;49.990;7.370;2023-06-14T06:35:10;5.40;;;3.97;;
22378;SDS011;11357;49.990;7.370;2023-06-14T06:37:37;5.72;;;3.92;;
22378;SDS011;11357;49.990;7.370;2023-06-14T06:40:04;9.25;;;3.95;;
22378;SDS011;11357;49.990;7.370;2023-06-14T06:42:31;7.53;;;3.70;;
22378;SDS011;11357;49.990;7.370;2023-06-14T06:44:57;7.88;;;3.83;;
22378;SDS011;11357;49.990;7.370;2023-06-14T06:47:22;5.50;;;3.30;;
22378;SDS011;11357;49.990;7.370;2023-06-14T06:49:49;6.18;;;3.78;;
22378;SDS011;11357;49.990;7.370;2023-06-14T06:52:15;4.35;;;3.80;;
22378;SDS011;11357;49.990;7.370;2023-06-14T06:54:41;7.35;;;4.05;;
22378;SDS011;11357;49.990;7.370;2023-06-14T06:57:07;6.95;;;4.63;;
22378;SDS011;11357;49.990;7.370;2023-06-14T06:59:33;4.55;;;3.63;;
22378;SDS011;11357;49.990;7.370;2023-06-14T07:01:59;6.63;;;3.88;;
22378;SDS011;11357;49.990;7.370;2023-06-14T07:04:25;7.88;;;3.50;;
22378;SDS011;11357;49.990;7.370;2023-06-14T07:06:51;6.43;;;3.58;;
22378;SDS011;11357;49.990;7.370;2023-06-14T07:09:16;7.55;;;3.40;;
22378;SDS011;11357;49.990;7.370;2023-06-14T07:11:43;7.70;;;3.42;;
22378;SDS011;11357;49.990;7.370;2023-06-14T07:14:09;11.45;;;3.85;;
22378;SDS011;11357;49.990;7.370;2023-06-14T07:16:35;9.63;;;3.53;;
22378;SDS011;11357;49.990;7.370;2023-06-14T07:19:03;7.47;;;3.20;;
22378;SDS011;11357;49.990;7.370;2023-06-14T07:21:29;5.22;;;3.28;;
22378;SDS011;11357;49.990;7.370;2023-06-14T07:23:55;6.70;;;3.70;;
22378;SDS011;11357;49.990;7.370;2023-06-14T07:26:21;8.95;;;3.85;;
22378;SDS011;11357;49.990;7.370;2023-06-14T07:28:48;5.30;;;3.40;;
22378;SDS011;11357;49.990;7.370;2023-06-14T07:31:14;8.73;;;4.15;;
22378;SDS011;11357;49.990;7.370;2023-06-14T07:33:41;6.15;;;3.53;;
22378;SDS011;11357;49.990;7.370;2023-06-14T07:36:07;5.70;;;3.30;;
22378;SDS011;11357;49.990;7.370;2023-06-14T07:38:33;5.70;;;3.58;;
22378;SDS011;11357;49.990;7.370;2023-06-14T07:40:59;5.03;;;3.55;;
22378;SDS011;11357;49.990;7.370;2023-06-14T07:43:25;6.90;;;3.50;;
22378;SDS011;11357;49.990;7.370;2023-06-14T07:45:51;5.55;;;3.45;;
22378;SDS011;11357;49.990;7.370;2023-06-14T07:48:17;2.88;;;2.50;;
22378;SDS011;11357;49.990;7.370;2023-06-14T07:50:42;8.52;;;3.63;;
22378;SDS011;11357;49.990;7.370;2023-06-14T07:53:08;6.60;;;3.47;;
22378;SDS011;11357;49.990;7.370;2023-06-14T07:55:34;8.70;;;3.10;;
22378;SDS011;11357;49.990;7.370;2023-06-14T07:58:02;7.82;;;3.47;;
22378;SDS011;11357;49.990;7.370;2023-06-14T08:00:28;7.55;;;3.10;;
22378;SDS011;11357;49.990;7.370;2023-06-14T08:02:54;7.20;;;3.28;;
22378;SDS011;11357;49.990;7.370;2023-06-14T08:05:24;5.25;;;3.13;;
22378;SDS011;11357;49.990;7.370;2023-06-14T08:07:51;4.38;;;3.10;;
22378;SDS011;11357;49.990;7.370;2023-06-14T08:10:17;5.22;;;3.05;;
22378;SDS011;11357;49.990;7.370;2023-06-14T08:12:43;7.15;;;2.90;;
22378;SDS011;11357;49.990;7.370;2023-06-14T08:15:08;9.32;;;3.08;;
22378;SDS011;11357;49.990;7.370;2023-06-14T08:17:34;4.13;;;2.33;;
22378;SDS011;11357;49.990;7.370;2023-06-14T08:20:00;6.88;;;2.80;;
22378;SDS011;11357;49.990;7.370;2023-06-14T08:22:26;5.05;;;2.60;;
22378;SDS011;11357;49.990;7.370;2023-06-14T08:24:53;3.58;;;2.58;;
22378;SDS011;11357;49.990;7.370;2023-06-14T08:27:19;6.70;;;3.30;;
22378;SDS011;11357;49.990;7.370;2023-06-14T08:29:45;5.28;;;2.95;;
22378;SDS011;11357;49.990;7.370;2023-06-14T08:32:11;2.53;;;2.33;;
22378;SDS011;11357;49.990;7.370;2023-06-14T08:34:37;5.25;;;2.33;;
22378;SDS011;11357;49.990;7.370;2023-06-14T08:37:03;5.05;;;2.40;;
22378;SDS011;11357;49.990;7.370;2023-06-14T08:39:30;3.13;;;2.42;;
22378;SDS011;11357;49.990;7.370;2023-06-14T08:41:56;5.05;;;2.60;;
22378;SDS011;11357;49.990;7.370;2023-06-14T08:44:23;4.63;;;2.83;;
22378;SDS011;11357;49.990;7.370;2023-06-14T08:46:49;3.13;;;2.67;;
22378;SDS011;11357;49.990;7.370;2023-06-14T08:49:17;5.82;;;2.70;;
22378;SDS011;11357;49.990;7.370;2023-06-14T08:51:43;3.80;;;2.58;;
22378;SDS011;11357;49.990;7.370;2023-06-14T08:54:10;7.70;;;2.70;;
22378;SDS011;11357;49.990;7.370;2023-06-14T08:56:38;3.70;;;2.72;;
22378;SDS011;11357;49.990;7.370;2023-06-14T08:59:06;4.82;;;2.28;;
22378;SDS011;11357;49.990;7.370;2023-06-14T09:01:34;3.85;;;2.58;;
22378;SDS011;11357;49.990;7.370;2023-06-14T09:04:00;4.43;;;2.70;;
22378;SDS011;11357;49.990;7.370;2023-06-14T09:06:27;8.57;;;2.80;;
22378;SDS011;11357;49.990;7.370;2023-06-14T09:08:54;8.18;;;2.70;;
22378;SDS011;11357;49.990;7.370;2023-06-14T09:11:22;7.13;;;2.90;;
22378;SDS011;11357;49.990;7.370;2023-06-14T09:13:49;8.93;;;2.90;;
22378;SDS011;11357;49.990;7.370;2023-06-14T09:16:15;5.60;;;2.50;;
22378;SDS011;11357;49.990;7.370;2023-06-14T09:18:41;3.80;;;2.72;;
22378;SDS011;11357;49.990;7.370;2023-06-14T09:21:15;3.80;;;2.95;;
22378;SDS011;11357;49.990;7.370;2023-06-14T09:23:45;5.22;;;2.33;;
22378;SDS011;11357;49.990;7.370;2023-06-14T09:26:16;5.00;;;2.55;;
22378;SDS011;11357;49.990;7.370;2023-06-14T09:28:48;4.07;;;2.25;;
22378;SDS011;11357;49.990;7.370;2023-06-14T09:31:19;3.47;;;1.90;;
22378;SDS011;11357;49.990;7.370;2023-06-14T09:33:46;3.67;;;2.38;;
22378;SDS011;11357;49.990;7.370;2023-06-14T09:36:31;4.30;;;2.33;;
22378;SDS011;11357;49.990;7.370;2023-06-14T09:41:36;6.55;;;2.40;;
22378;SDS011;11357;49.990;7.370;2023-06-14T09:44:04;2.85;;;2.25;;
22378;SDS011;11357;49.990;7.370;2023-06-14T09:46:31;4.65;;;2.45;;
22378;SDS011;11357;49.990;7.370;2023-06-14T09:48:57;4.07;;;1.75;;
22378;SDS011;11357;49.990;7.370;2023-06-14T09:51:24;2.70;;;1.98;;
22378;SDS011;11357;49.990;7.370;2023-06-14T09:53:51;3.28;;;1.67;;
22378;SDS011;11357;49.990;7.370;2023-06-14T09:56:30;5.57;;;1.60;;
22378;SDS011;11357;49.990;7.370;2023-06-14T09:59:04;3.58;;;2.13;;
22378;SDS011;11357;49.990;7.370;2023-06-14T10:01:32;2.75;;;2.00;;
22378;SDS011;11357;49.990;7.370;2023-06-14T10:04:04;2.13;;;1.92;;
22378;SDS011;11357;49.990;7.370;2023-06-14T10:06:31;7.32;;;2.25;;
22378;SDS011;11357;49.990;7.370;2023-06-14T10:09:00;2.55;;;1.90;;
22378;SDS011;11357;49.990;7.370;2023-06-14T10:11:26;5.20;;;2.15;;
22378;SDS011;11357;49.990;7.370;2023-06-14T10:13:55;2.95;;;2.05;;
22378;SDS011;11357;49.990;7.370;2023-06-14T10:16:27;4.78;;;2.20;;
22378;SDS011;11357;49.990;7.370;2023-06-14T10:24:14;4.55;;;1.90;;
22378;SDS011;11357;49.990;7.370;2023-06-14T10:26:53;3.85;;;2.15;;
22378;SDS011;11357;49.990;7.370;2023-06-14T10:29:23;5.18;;;1.90;;
22378;SDS011;11357;49.990;7.370;2023-06-14T10:31:49;5.80;;;2.20;;
22378;SDS011;11357;49.990;7.370;2023-06-14T10:34:22;4.55;;;2.17;;
22378;SDS011;11357;49.990;7.370;2023-06-14T10:39:41;4.20;;;1.95;;
22378;SDS011;11357;49.990;7.370;2023-06-14T10:42:11;2.65;;;1.75;;
22378;SDS011;11357;49.990;7.370;2023-06-14T10:44:51;5.60;;;2.20;;
22378;SDS011;11357;49.990;7.370;2023-06-14T10:47:36;3.55;;;1.90;;
22378;SDS011;11357;49.990;7.370;2023-06-14T10:50:08;7.32;;;2.25;;
22378;SDS011;11357;49.990;7.370;2023-06-14T10:52:39;2.53;;;1.80;;
22378;SDS011;11357;49.990;7.370;2023-06-14T10:57:37;3.58;;;2.10;;
22378;SDS011;11357;49.990;7.370;2023-06-14T11:00:04;2.65;;;1.67;;
22378;SDS011;11357;49.990;7.370;2023-06-14T11:05:25;2.13;;;1.90;;
22378;SDS011;11357;49.990;7.370;2023-06-14T11:10:40;3.58;;;1.63;;
22378;SDS011;11357;49.990;7.370;2023-06-14T11:13:07;2.63;;;2.05;;
22378;SDS011;11357;49.990;7.370;2023-06-14T11:15:33;6.10;;;2.25;;
22378;SDS011;11357;49.990;7.370;2023-06-14T11:18:03;3.47;;;2.25;;
22378;SDS011;11357;49.990;7.370;2023-06-14T11:20:33;5.95;;;2.17;;
22378;SDS011;11357;49.990;7.370;2023-06-14T11:23:00;2.78;;;2.00;;
22378;SDS011;11357;49.990;7.370;2023-06-14T11:25:27;4.90;;;2.40;;
22378;SDS011;11357;49.990;7.370;2023-06-14T11:27:53;2.80;;;2.00;;
22378;SDS011;11357;49.990;7.370;2023-06-14T11:30:20;6.57;;;2.25;;
22378;SDS011;11357;49.990;7.370;2023-06-14T11:32:50;3.40;;;2.10;;
22378;SDS011;11357;49.990;7.370;2023-06-14T11:35:17;3.95;;;1.88;;
22378;SDS011;11357;49.990;7.370;2023-06-14T11:37:44;2.72;;;2.08;;
22378;SDS011;11357;49.990;7.370;2023-06-14T11:40:10;4.00;;;1.92;;
22378;SDS011;11357;49.990;7.370;2023-06-14T11:42:38;2.72;;;1.90;;
22378;SDS011;11357;49.990;7.370;2023-06-14T11:45:08;5.30;;;1.80;;
22378;SDS011;11357;49.990;7.370;2023-06-14T11:47:35;8.13;;;2.42;;
22378;SDS011;11357;49.990;7.370;2023-06-14T11:50:01;7.85;;;2.05;;
22378;SDS011;11357;49.990;7.370;2023-06-14T11:52:28;3.92;;;1.88;;
22378;SDS011;11357;49.990;7.370;2023-06-14T11:54:54;4.38;;;2.10;;
22378;SDS011;11357;49.990;7.370;2023-06-14T11:57:21;2.42;;;1.83;;
22378;SDS011;11357;49.990;7.370;2023-06-14T11:59:46;2.78;;;1.98;;
22378;SDS011;11357;49.990;7.370;2023-06-14T12:02:14;4.18;;;1.80;;
22378;SDS011;11357;49.990;7.370;2023-06-14T12:04:41;4.25;;;1.67;;
22378;SDS011;11357;49.990;7.370;2023-06-14T12:07:13;3.60;;;1.73;;
22378;SDS011;11357;49.990;7.370;2023-06-14T12:09:41;3.33;;;1.80;;
22378;SDS011;11357;49.990;7.370;2023-06-14T12:12:11;2.90;;;1.42;;
22378;SDS011;11357;49.990;7.370;2023-06-14T12:14:37;1.70;;;1.60;;
22378;SDS011;11357;49.990;7.370;2023-06-14T12:17:06;2.03;;;1.60;;
22378;SDS011;11357;49.990;7.370;2023-06-14T12:19:32;2.53;;;2.17;;
22378;SDS011;11357;49.990;7.370;2023-06-14T12:22:03;5.13;;;1.60;;
22378;SDS011;11357;49.990;7.370;2023-06-14T12:24:30;3.15;;;1.73;;
22378;SDS011;11357;49.990;7.370;2023-06-14T12:26:57;3.47;;;1.50;;
22378;SDS011;11357;49.990;7.370;2023-06-14T12:29:29;2.63;;;1.63;;
22378;SDS011;11357;49.990;7.370;2023-06-14T12:31:56;3.17;;;1.50;;
22378;SDS011;11357;49.990;7.370;2023-06-14T12:34:25;3.75;;;1.50;;
22378;SDS011;11357;49.990;7.370;2023-06-14T12:36:54;1.55;;;1.38;;
22378;SDS011;11357;49.990;7.370;2023-06-14T12:39:20;2.08;;;1.70;;
22378;SDS011;11357;49.990;7.370;2023-06-14T12:41:49;3.72;;;1.50;;
22378;SDS011;11357;49.990;7.370;2023-06-14T12:44:15;2.50;;;1.38;;
22378;SDS011;11357;49.990;7.370;2023-06-14T12:46:41;4.57;;;1.42;;
22378;SDS011;11357;49.990;7.370;2023-06-14T12:49:08;3.17;;;1.67;;
22378;SDS011;11357;49.990;7.370;2023-06-14T12:51:37;5.35;;;1.30;;
22378;SDS011;11357;49.990;7.370;2023-06-14T12:54:04;7.45;;;1.80;;
22378;SDS011;11357;49.990;7.370;2023-06-14T12:56:30;5.95;;;1.77;;
22378;SDS011;11357;49.990;7.370;2023-06-14T12:58:55;8.73;;;1.45;;
22378;SDS011;11357;49.990;7.370;2023-06-14T13:01:21;1.98;;;1.40;;
22378;SDS011;11357;49.990;7.370;2023-06-14T13:03:47;5.28;;;1.50;;
22378;SDS011;11357;49.990;7.370;2023-06-14T13:06:14;2.15;;;1.00;;
22378;SDS011;11357;49.990;7.370;2023-06-14T13:08:40;4.72;;;1.35;;
22378;SDS011;11357;49.990;7.370;2023-06-14T13:11:06;4.20;;;1.63;;
22378;SDS011;11357;49.990;7.370;2023-06-14T13:13:32;3.03;;;1.42;;
22378;SDS011;11357;49.990;7.370;2023-06-14T13:15:58;1.33;;;1.23;;
22378;SDS011;11357;49.990;7.370;2023-06-14T13:18:23;73.80;;;4.32;;
22378;SDS011;11357;49.990;7.370;2023-06-14T13:20:49;2.67;;;1.55;;
22378;SDS011;11357;49.990;7.370;2023-06-14T13:23:16;2.72;;;1.60;;
22378;SDS011;11357;49.990;7.370;2023-06-14T13:25:41;28.48;;;2.70;;
22378;SDS011;11357;49.990;7.370;2023-06-14T13:28:07;5.70;;;1.67;;
22378;SDS011;11357;49.990;7.370;2023-06-14T13:30:33;33.47;;;2.88;;
22378;SDS011;11357;49.990;7.370;2023-06-14T13:32:59;3.50;;;1.60;;
22378;SDS011;11357;49.990;7.370;2023-06-14T13:35:25;3.40;;;1.50;;
22378;SDS011;11357;49.990;7.370;2023-06-14T13:37:51;3.03;;;1.20;;
22378;SDS011;11357;49.990;7.370;2023-06-14T13:40:17;4.00;;;1.48;;
22378;SDS011;11357;49.990;7.370;2023-06-14T13:42:43;5.68;;;1.52;;
22378;SDS011;11357;49.990;7.370;2023-06-14T13:45:10;3.72;;;1.20;;
22378;SDS011;11357;49.990;7.370;2023-06-14T13:47:36;3.95;;;1.48;;
22378;SDS011;11357;49.990;7.370;2023-06-14T13:50:03;2.20;;;1.50;;
22378;SDS011;11357;49.990;7.370;2023-06-14T13:52:29;2.88;;;1.60;;
22378;SDS011;11357;49.990;7.370;2023-06-14T13:54:55;4.13;;;1.80;;
22378;SDS011;11357;49.990;7.370;2023-06-14T13:57:21;6.70;;;1.63;;
22378;SDS011;11357;49.990;7.370;2023-06-14T13:59:47;10.38;;;1.70;;
22378;SDS011;11357;49.990;7.370;2023-06-14T14:02:13;1.70;;;1.25;;
22378;SDS011;11357;49.990;7.370;2023-06-14T14:04:39;2.17;;;1.85;;
22378;SDS011;11357;49.990;7.370;2023-06-14T14:07:06;1.83;;;1.40;;
22378;SDS011;11357;49.990;7.370;2023-06-14T14:09:32;2.72;;;2.00;;
22378;SDS011;11357;49.990;7.370;2023-06-14T14:11:59;9.32;;;1.92;;
22378;SDS011;11357;49.990;7.370;2023-06-14T14:14:27;4.10;;;1.50;;
22378;SDS011;11357;49.990;7.370;2023-06-14T14:16:53;3.70;;;1.75;;
22378;SDS011;11357;49.990;7.370;2023-06-14T14:19:19;5.15;;;1.70;;
22378;SDS011;11357;49.990;7.370;2023-06-14T14:21:47;3.45;;;1.50;;
22378;SDS011;11357;49.990;7.370;2023-06-14T14:24:12;2.58;;;1.77;;
22378;SDS011;11357;49.990;7.370;2023-06-14T14:26:38;1.90;;;1.77;;
22378;SDS011;11357;49.990;7.370;2023-06-14T14:29:04;3.92;;;1.52;;
22378;SDS011;11357;49.990;7.370;2023-06-14T14:31:31;2.75;;;1.52;;
22378;SDS011;11357;49.990;7.370;2023-06-14T14:33:56;7.35;;;2.03;;
22378;SDS011;11357;49.990;7.370;2023-06-14T14:36:22;11.95;;;1.77;;
22378;SDS011;11357;49.990;7.370;2023-06-14T14:38:47;5.40;;;1.75;;
22378;SDS011;11357;49.990;7.370;2023-06-14T14:41:13;6.25;;;1.70;;
22378;SDS011;11357;49.990;7.370;2023-06-14T14:43:39;3.05;;;1.58;;
22378;SDS011;11357;49.990;7.370;2023-06-14T14:46:05;2.47;;;1.80;;
22378;SDS011;11357;49.990;7.370;2023-06-14T14:48:30;2.28;;;1.70;;
22378;SDS011;11357;49.990;7.370;2023-06-14T14:50:56;2.30;;;1.50;;
22378;SDS011;11357;49.990;7.370;2023-06-14T14:53:22;1.80;;;1.48;;
22378;SDS011;11357;49.990;7.370;2023-06-14T14:55:48;3.25;;;1.73;;
22378;SDS011;11357;49.990;7.370;2023-06-14T14:58:14;3.67;;;1.90;;
22378;SDS011;11357;49.990;7.370;2023-06-14T15:00:46;3.47;;;2.10;;
22378;SDS011;11357;49.990;7.370;2023-06-14T15:03:13;6.30;;;2.20;;
22378;SDS011;11357;49.990;7.370;2023-06-14T15:05:39;2.63;;;2.00;;
22378;SDS011;11357;49.990;7.370;2023-06-14T15:08:05;6.13;;;2.10;;